Time;durP1;ratioP1;P1;durP2;ratioP2;P2;SDS_P1;SDS_P2;PMS_P1;PMS_P2;Temp;Humidity;BMP_temperature;BMP_pressure;BME280_temperature;BME280_humidity;BME280_pressure;Samples;Min_cycle;Max_cycle;Signal;HPM_P1;HPM_P2
2023/04/28 00:00:28;;;;;;;7.18;3.47;;;;;;;22.37;35.37;100179.00;4331072;33;34762;-64
2023/04/28 00:02:56;;;;;;;7.35;3.75;;;;;;;22.36;35.39;100174.59;4330861;33;34119;-62
2023/04/28 00:05:24;;;;;;;6.55;3.40;;;;;;;22.35;35.40;100181.09;4331112;33;34158;-63
2023/04/28 00:07:51;;;;;;;9.55;3.28;;;;;;;22.35;35.39;100170.22;4331060;33;33895;-64
2023/04/28 00:10:19;;;;;;;6.45;3.97;;;;;;;22.34;35.42;100174.00;4330953;33;34143;-64
2023/04/28 00:12:46;;;;;;;8.10;3.75;;;;;;;22.36;35.47;100178.16;4331047;33;35254;-63
2023/04/28 00:15:14;;;;;;;6.40;3.60;;;;;;;22.34;35.50;100163.94;4331266;33;33318;-63
2023/04/28 00:17:43;;;;;;;6.20;3.20;;;;;;;22.34;35.52;100172.09;4317505;33;34806;-65
2023/04/28 00:20:10;;;;;;;6.97;3.50;;;;;;;22.34;35.54;100171.28;4330920;33;35035;-64
2023/04/28 00:22:38;;;;;;;5.82;3.40;;;;;;;22.33;35.55;100170.41;4330937;33;34144;-64
2023/04/28 00:25:06;;;;;;;8.05;3.95;;;;;;;22.34;35.57;100168.56;4330916;33;33656;-63
2023/04/28 00:27:33;;;;;;;6.93;3.87;;;;;;;22.33;35.62;100170.41;4332845;33;33883;-63
2023/04/28 00:30:01;;;;;;;6.10;3.30;;;;;;;22.33;35.62;100164.97;4332968;33;33674;-63
2023/04/28 00:32:31;;;;;;;6.68;3.20;;;;;;;22.34;35.64;100165.84;4332755;33;34325;-62
2023/04/28 00:34:58;;;;;;;6.60;3.50;;;;;;;22.34;35.66;100166.66;4319637;33;33595;-63
2023/04/28 00:37:25;;;;;;;7.62;3.30;;;;;;;22.33;35.68;100161.44;4332678;33;33675;-63
2023/04/28 00:39:55;;;;;;;7.22;3.35;;;;;;;22.33;35.72;100166.88;4332872;33;34749;-64
2023/04/28 00:42:22;;;;;;;5.53;3.03;;;;;;;22.33;35.75;100164.16;4332638;33;33926;-63
2023/04/28 00:44:50;;;;;;;6.43;2.90;;;;;;;22.33;35.75;100167.69;4332667;33;34636;-64
2023/04/28 00:47:18;;;;;;;6.22;3.10;;;;;;;22.33;35.78;100175.84;4332942;33;33761;-63
2023/04/28 00:49:46;;;;;;;8.05;3.40;;;;;;;22.32;35.80;100166.03;4332704;33;34897;-63
2023/04/28 00:52:14;;;;;;;6.15;3.28;;;;;;;22.33;35.83;100169.59;4332815;33;34273;-64
2023/04/28 00:54:41;;;;;;;4.97;2.62;;;;;;;22.31;35.85;100172.53;4332960;33;33679;-64
2023/04/28 00:57:09;;;;;;;4.93;2.72;;;;;;;22.32;35.90;100178.78;4332761;33;34090;-64
2023/04/28 00:59:37;;;;;;;7.32;3.17;;;;;;;22.33;35.86;100178.56;4332261;33;34029;-63
2023/04/28 01:02:06;;;;;;;9.35;3.67;;;;;;;22.34;35.88;100179.44;4332688;33;34986;-64
2023/04/28 01:04:34;;;;;;;5.70;3.12;;;;;;;22.34;35.90;100187.59;4319494;33;33684;-64
2023/04/28 01:07:01;;;;;;;6.15;2.85;;;;;;;22.33;35.93;100186.72;4307440;33;33870;-64
2023/04/28 01:09:29;;;;;;;7.57;3.70;;;;;;;22.35;36.00;100186.53;4319709;33;33974;-63
2023/04/28 01:11:57;;;;;;;6.10;3.22;;;;;;;22.34;36.02;100185.69;4332962;33;34262;-64
2023/04/28 01:14:25;;;;;;;5.90;3.00;;;;;;;22.35;36.06;100189.25;4332805;33;34767;-64
2023/04/28 01:16:53;;;;;;;6.75;3.70;;;;;;;22.35;36.05;100189.25;4332368;33;34919;-63
2023/04/28 01:19:21;;;;;;;5.65;2.92;;;;;;;22.36;36.08;100190.91;4332627;33;34126;-64
2023/04/28 01:21:49;;;;;;;5.37;2.85;;;;;;;22.36;36.05;100191.75;4332646;33;34891;-63
2023/04/28 01:24:17;;;;;;;8.13;3.97;;;;;;;22.36;36.10;100188.19;4332681;33;34472;-63
2023/04/28 01:26:45;;;;;;;6.87;3.50;;;;;;;22.34;36.16;100182.97;4319196;33;33951;-63
2023/04/28 01:29:12;;;;;;;6.65;3.37;;;;;;;22.36;36.16;100190.91;4332402;33;34156;-64
2023/04/28 01:31:40;;;;;;;6.20;3.20;;;;;;;22.35;36.18;100184.66;4318936;33;33618;-63
2023/04/28 01:34:08;;;;;;;5.35;2.95;;;;;;;22.36;36.19;100188.19;4332219;33;33352;-64
2023/04/28 01:36:35;;;;;;;8.02;3.47;;;;;;;22.36;36.17;100185.47;4331846;33;33791;-62
2023/04/28 01:39:04;;;;;;;5.72;3.12;;;;;;;22.35;36.17;100176.50;4332267;33;34102;-63
2023/04/28 01:41:35;;;;;;;7.28;3.33;;;;;;;22.36;36.18;100175.44;4332493;33;34104;-63
2023/04/28 01:44:04;;;;;;;5.37;3.10;;;;;;;22.36;36.18;100174.59;4332416;33;33405;-64
2023/04/28 01:46:33;;;;;;;4.87;3.03;;;;;;;22.36;36.21;100177.31;4332405;33;34160;-61
2023/04/28 01:49:01;;;;;;;8.32;2.90;;;;;;;22.36;36.20;100172.72;4319070;33;34044;-64
2023/04/28 01:51:28;;;;;;;7.18;3.22;;;;;;;22.37;36.21;100168.12;4332358;33;34174;-61
2023/04/28 01:53:56;;;;;;;7.12;3.08;;;;;;;22.35;36.24;100175.66;4332439;33;33538;-64
2023/04/28 01:56:23;;;;;;;6.37;3.10;;;;;;;22.35;36.32;100178.38;4332137;33;34697;-61
2023/04/28 01:58:51;;;;;;;5.30;2.90;;;;;;;22.35;36.35;100167.50;4332536;33;34123;-63
2023/04/28 02:01:19;;;;;;;6.07;3.10;;;;;;;22.34;36.38;100174.81;4332599;33;33907;-62
2023/04/28 02:03:47;;;;;;;7.25;3.05;;;;;;;22.34;36.42;100174.00;4332371;33;33712;-63
2023/04/28 02:06:15;;;;;;;6.95;3.15;;;;;;;22.33;36.45;100184.00;4332498;33;34037;-60
2023/04/28 02:08:43;;;;;;;5.05;2.90;;;;;;;22.33;36.44;100184.00;4332158;33;34694;-64
2023/04/28 02:11:11;;;;;;;5.62;2.72;;;;;;;22.32;36.46;100181.50;4332165;33;33901;-60
2023/04/28 02:13:39;;;;;;;5.20;2.90;;;;;;;22.32;36.47;100182.34;4332272;33;34491;-63
2023/04/28 02:16:07;;;;;;;6.10;2.75;;;;;;;22.32;36.48;100182.34;4332251;33;34496;-64
2023/04/28 02:18:35;;;;;;;5.45;2.97;;;;;;;22.31;36.49;100180.69;4332058;33;34959;-63
2023/04/28 02:21:10;;;;;;;6.12;2.83;;;;;;;22.30;36.51;100181.72;4332229;33;34838;-64
2023/04/28 02:23:38;;;;;;;4.78;2.90;;;;;;;22.31;36.53;100188.00;4332210;33;34428;-64
2023/04/28 02:26:06;;;;;;;4.60;2.50;;;;;;;22.29;36.58;100188.22;4331906;33;34675;-64
2023/04/28 02:28:33;;;;;;;5.72;2.80;;;;;;;22.29;36.57;100184.62;4332173;33;33661;-63
2023/04/28 02:31:08;;;;;;;5.68;2.90;;;;;;;22.29;36.57;100187.34;4332135;33;34710;-64
2023/04/28 02:33:36;;;;;;;5.68;3.08;;;;;;;22.29;36.57;100190.94;4332210;33;33545;-63
2023/04/28 02:36:04;;;;;;;6.03;3.03;;;;;;;22.28;36.60;100186.53;4332158;33;33831;-62
2023/04/28 02:38:32;;;;;;;5.32;2.78;;;;;;;22.28;36.61;100189.25;4331891;33;34026;-63
2023/04/28 02:41:01;;;;;;;6.45;3.60;;;;;;;22.28;36.62;100186.53;4331902;33;33862;-63
2023/04/28 02:43:29;;;;;;;4.93;2.97;;;;;;;22.27;36.66;100184.03;4318847;33;34528;-62
2023/04/28 02:45:56;;;;;;;7.35;3.30;;;;;;;22.29;36.69;100188.22;4332150;33;34162;-63
2023/04/28 02:48:24;;;;;;;6.45;2.58;;;;;;;22.28;36.68;100191.12;4318485;33;33790;-63
2023/04/28 02:50:52;;;;;;;5.60;2.90;;;;;;;22.28;36.74;100185.69;4332265;33;34386;-65
2023/04/28 02:53:20;;;;;;;4.72;2.80;;;;;;;22.27;36.76;100193.00;4331834;33;34058;-63
2023/04/28 02:55:48;;;;;;;5.07;2.85;;;;;;;22.28;36.78;100191.12;4332329;33;34055;-63
2023/04/28 02:58:16;;;;;;;6.87;2.90;;;;;;;22.28;36.78;100183.81;4331683;33;33849;-64
2023/04/28 03:00:45;;;;;;;5.62;2.60;;;;;;;22.28;36.79;100191.12;4331711;33;34233;-60
2023/04/28 03:03:13;;;;;;;4.97;2.92;;;;;;;22.27;36.79;100189.47;4332019;33;34548;-63
2023/04/28 03:05:41;;;;;;;5.28;2.75;;;;;;;22.26;36.81;100191.34;4331889;33;34818;-64
2023/04/28 03:08:08;;;;;;;4.90;2.70;;;;;;;22.27;36.85;100194.91;4331629;33;34923;-64
2023/04/28 03:10:36;;;;;;;8.02;3.00;;;;;;;22.28;36.86;100194.69;4331816;33;34188;-63
2023/04/28 03:13:03;;;;;;;4.60;2.70;;;;;;;22.28;36.87;100196.56;4332131;33;33805;-63
2023/04/28 03:15:31;;;;;;;5.75;2.42;;;;;;;22.27;36.90;100187.56;4331702;33;34032;-60
2023/04/28 03:17:58;;;;;;;7.05;3.00;;;;;;;22.27;36.89;100197.63;4306797;33;34286;-63
2023/04/28 03:20:26;;;;;;;5.30;2.90;;;;;;;22.27;36.89;100194.91;4331624;33;35007;-63
2023/04/28 03:22:54;;;;;;;4.57;2.28;;;;;;;22.28;36.89;100197.41;4331497;33;34540;-63
2023/04/28 03:25:22;;;;;;;6.12;3.03;;;;;;;22.29;36.89;100200.94;4331871;33;33468;-64
2023/04/28 03:27:50;;;;;;;7.57;2.80;;;;;;;22.26;36.89;100191.34;4318369;33;34404;-63
2023/04/28 03:30:17;;;;;;;5.65;2.65;;;;;;;22.26;36.91;100190.50;4331417;33;34306;-63
2023/04/28 03:32:45;;;;;;;6.25;2.97;;;;;;;22.26;36.95;100190.50;4331365;33;33824;-63
2023/04/28 03:35:13;;;;;;;5.45;2.75;;;;;;;22.27;36.95;100189.47;4331477;33;33978;-64
2023/04/28 03:37:41;;;;;;;8.30;2.87;;;;;;;22.27;36.98;100192.19;4318414;33;33660;-62
2023/04/28 03:40:09;;;;;;;5.50;2.58;;;;;;;22.26;36.98;100191.34;4331377;33;34277;-61
2023/04/28 03:42:38;;;;;;;5.20;2.58;;;;;;;22.27;37.02;100192.19;4331128;33;33571;-60
2023/04/28 03:45:07;;;;;;;9.57;3.37;;;;;;;22.27;36.97;100193.00;4323807;33;34037;-60
2023/04/28 03:47:35;;;;;;;9.18;2.92;;;;;;;22.27;36.99;100189.47;4330427;33;34031;-59
2023/04/28 03:50:02;;;;;;;4.35;2.22;;;;;;;22.27;36.91;100187.56;4330748;33;34965;-59
2023/04/28 03:52:30;;;;;;;8.77;3.30;;;;;;;22.25;36.79;100195.12;4330815;33;34410;-60
2023/04/28 03:54:58;;;;;;;3.95;2.53;;;;;;;22.25;36.65;100192.41;4330697;33;34706;-59
2023/04/28 03:57:25;;;;;;;5.97;3.10;;;;;;;22.24;36.55;100195.31;4330839;33;34177;-59
2023/04/28 03:59:53;;;;;;;4.93;2.70;;;;;;;22.24;36.47;100196.13;4330871;33;35012;-59
2023/04/28 04:02:20;;;;;;;6.07;3.15;;;;;;;22.24;36.43;100200.75;4333328;33;33945;-59
2023/04/28 04:04:48;;;;;;;5.00;2.72;;;;;;;22.23;36.37;100201.78;4344377;33;34761;-59
2023/04/28 04:07:16;;;;;;;5.80;2.80;;;;;;;22.21;36.33;100203.91;4338729;33;33583;-60
2023/04/28 04:09:44;;;;;;;12.02;3.72;;;;;;;22.21;36.30;100210.16;4333377;33;33738;-60
2023/04/28 04:12:11;;;;;;;9.57;4.25;;;;;;;22.19;34.68;100206.81;4332922;33;33829;-59
2023/04/28 04:14:39;;;;;;;14.80;4.85;;;;;;;21.95;29.68;100210.09;4332992;33;34725;-60
2023/04/28 04:17:07;;;;;;;8.05;3.87;;;;;;;21.77;29.27;100210.69;4333238;33;34031;-59
2023/04/28 04:19:34;;;;;;;8.85;3.65;;;;;;;21.79;31.84;100211.34;4333131;33;35597;-59
2023/04/28 04:22:02;;;;;;;10.15;3.35;;;;;;;21.83;32.68;100210.72;4333049;33;34580;-60
2023/04/28 04:24:30;;;;;;;9.65;3.37;;;;;;;21.85;33.22;100219.47;4332896;33;33501;-64
2023/04/28 04:26:57;;;;;;;9.85;3.33;;;;;;;21.93;33.43;100214.91;4330959;33;33661;-60
2023/04/28 04:29:26;;;;;;;10.82;3.58;;;;;;;22.05;33.53;100219.50;4330998;33;34980;-64
2023/04/28 04:31:54;;;;;;;8.93;3.40;;;;;;;22.18;33.58;100216.00;4331013;33;34577;-57
2023/04/28 04:34:21;;;;;;;6.53;2.95;;;;;;;22.31;33.63;100217.91;4330918;33;33826;-63
2023/04/28 04:36:49;;;;;;;5.80;3.00;;;;;;;22.42;33.66;100211.81;4330959;33;33932;-61
2023/04/28 04:39:17;;;;;;;6.10;3.03;;;;;;;22.54;33.69;100212.03;4331072;33;33733;-63
2023/04/28 04:41:46;;;;;;;8.80;3.28;;;;;;;22.61;33.68;100205.53;4331480;33;33700;-63
2023/04/28 04:44:17;;;;;;;9.75;3.08;;;;;;;22.72;33.67;100205.97;4332862;33;33444;-64
2023/04/28 04:46:45;;;;;;;8.18;2.90;;;;;;;22.78;33.67;100205.94;4333113;33;34185;-60
2023/04/28 04:49:14;;;;;;;6.62;2.80;;;;;;;22.85;33.68;100211.38;4332701;33;35169;-63
2023/04/28 04:51:42;;;;;;;7.55;2.78;;;;;;;22.90;33.67;100217.03;4332900;33;34627;-59
2023/04/28 04:54:10;;;;;;;6.35;2.20;;;;;;;22.94;33.67;100214.72;4332883;33;34082;-64
2023/04/28 04:56:38;;;;;;;6.60;2.47;;;;;;;22.96;33.66;100221.62;4332049;33;33873;-62
2023/04/28 04:59:06;;;;;;;5.00;2.40;;;;;;;23.01;33.66;100219.09;4319479;33;34233;-63
2023/04/28 05:01:34;;;;;;;5.60;2.70;;;;;;;23.03;33.66;100216.97;4332963;33;34562;-62
2023/04/28 05:04:02;;;;;;;4.53;2.62;;;;;;;23.05;33.66;100217.63;4332551;33;33868;-63
2023/04/28 05:06:30;;;;;;;7.12;2.50;;;;;;;23.07;33.65;100217.41;4332996;33;33749;-63
2023/04/28 05:08:58;;;;;;;4.65;2.33;;;;;;;23.08;33.65;100217.19;4332416;33;34189;-61
2023/04/28 05:11:26;;;;;;;5.80;2.40;;;;;;;23.11;33.68;100213.19;4319511;33;33738;-64
2023/04/28 05:13:53;;;;;;;6.43;2.62;;;;;;;23.09;33.68;100218.88;4332548;33;35462;-63
2023/04/28 05:16:22;;;;;;;4.70;2.25;;;;;;;23.10;33.71;100222.44;4318139;33;33533;-61
2023/04/28 05:18:50;;;;;;;7.60;2.60;;;;;;;23.09;33.72;100221.59;4305013;33;34223;-63
2023/04/28 05:21:17;;;;;;;5.68;2.67;;;;;;;23.08;33.75;100219.94;4304951;33;33405;-63
2023/04/28 05:23:45;;;;;;;5.95;2.50;;;;;;;23.09;33.77;100218.88;4317860;33;33641;-61
2023/04/28 05:26:13;;;;;;;5.15;2.55;;;;;;;23.09;33.79;100224.31;4318095;33;34356;-63
2023/04/28 05:28:40;;;;;;;4.97;2.42;;;;;;;23.08;33.82;100225.38;4304945;33;34975;-60
2023/04/28 05:31:08;;;;;;;5.80;2.80;;;;;;;23.08;33.85;100229.94;4319800;33;33551;-61
2023/04/28 05:33:36;;;;;;;6.40;2.67;;;;;;;23.08;33.88;100235.41;4327184;33;175621;-64
2023/04/28 05:36:04;;;;;;;5.60;2.47;;;;;;;23.06;33.91;100232.91;4332718;33;33849;-62
2023/04/28 05:38:32;;;;;;;5.12;2.25;;;;;;;23.04;33.95;100226.00;4332522;33;34511;-63
2023/04/28 05:41:00;;;;;;;5.68;2.62;;;;;;;23.03;34.00;100225.16;4332710;33;33466;-63
2023/04/28 05:43:28;;;;;;;6.70;2.37;;;;;;;23.02;34.03;100228.09;4332450;33;34037;-60
2023/04/28 05:45:56;;;;;;;4.37;2.20;;;;;;;23.01;34.05;100223.72;4332316;33;34023;-64
2023/04/28 05:48:23;;;;;;;6.15;2.60;;;;;;;23.01;34.07;100226.44;4332164;33;34213;-63
2023/04/28 05:50:51;;;;;;;6.78;3.12;;;;;;;23.00;34.10;100233.75;4332324;33;33551;-61
2023/04/28 05:53:19;;;;;;;6.05;2.40;;;;;;;22.98;34.16;100232.28;4332271;33;34138;-64
2023/04/28 05:55:47;;;;;;;4.22;2.40;;;;;;;22.96;34.20;100227.06;4332562;33;33763;-60
2023/04/28 05:58:14;;;;;;;5.70;2.47;;;;;;;22.95;34.24;100230.00;4307269;33;34833;-65
2023/04/28 06:00:42;;;;;;;8.55;2.60;;;;;;;22.94;34.26;100233.75;4332466;33;33610;-61
2023/04/28 06:03:13;;;;;;;4.85;2.37;;;;;;;22.93;34.31;100232.91;4332223;33;33931;-64
2023/04/28 06:05:41;;;;;;;6.20;2.87;;;;;;;22.91;34.34;100229.59;4345663;33;33962;-64
2023/04/28 06:08:09;;;;;;;4.30;2.08;;;;;;;22.90;34.36;100238.81;4344813;33;34511;-60
2023/04/28 06:10:36;;;;;;;4.50;2.30;;;;;;;22.90;34.40;100246.97;4332278;33;34038;-63
2023/04/28 06:13:05;;;;;;;5.65;2.50;;;;;;;22.88;34.40;100249.84;4332366;33;33774;-60
2023/04/28 06:15:32;;;;;;;3.65;1.85;;;;;;;22.87;34.42;100250.91;4332067;33;33858;-61
2023/04/28 06:18:00;;;;;;;6.18;2.67;;;;;;;22.86;34.44;100240.25;4318979;33;34122;-60
2023/04/28 06:20:28;;;;;;;5.72;2.55;;;;;;;22.83;34.48;100241.50;4332252;33;34120;-62
2023/04/28 06:22:56;;;;;;;5.50;2.87;;;;;;;22.82;34.53;100247.16;4331498;33;34558;-63
2023/04/28 06:25:23;;;;;;;4.87;2.50;;;;;;;22.80;34.54;100246.50;4332596;33;34732;-63
2023/04/28 06:27:51;;;;;;;4.43;2.30;;;;;;;22.80;34.56;100249.22;4332252;33;34124;-63
2023/04/28 06:30:23;;;;;;;6.57;2.28;;;;;;;22.78;34.60;100248.62;4332073;33;33333;-63
2023/04/28 06:32:51;;;;;;;4.32;2.37;;;;;;;22.75;34.65;100249.03;4332055;33;34437;-61
2023/04/28 06:35:18;;;;;;;5.35;2.65;;;;;;;22.75;34.68;100249.03;4332025;33;34118;-62
2023/04/28 06:37:46;;;;;;;4.65;2.08;;;;;;;22.74;34.71;100250.09;4332109;33;34976;-63
2023/04/28 06:40:14;;;;;;;6.60;2.30;;;;;;;22.72;34.74;100247.59;4332282;33;33860;-60
2023/04/28 06:42:42;;;;;;;5.72;2.53;;;;;;;22.71;34.76;100247.78;4332115;33;33959;-63
2023/04/28 06:45:10;;;;;;;6.22;2.50;;;;;;;22.71;34.77;100247.78;4332058;33;33986;-62
2023/04/28 06:47:39;;;;;;;6.10;2.85;;;;;;;22.70;34.79;100246.12;4332106;33;33666;-60
2023/04/28 06:50:08;;;;;;;5.28;2.72;;;;;;;22.70;34.80;100251.56;4318627;33;34673;-60
2023/04/28 06:52:37;;;;;;;4.32;2.15;;;;;;;22.70;34.82;100252.38;4332178;33;34642;-60
2023/04/28 06:55:08;;;;;;;6.28;2.85;;;;;;;22.69;34.83;100256.16;4331932;33;34769;-63
2023/04/28 06:57:36;;;;;;;6.12;2.10;;;;;;;22.67;34.87;100250.94;4331765;33;34230;-60
2023/04/28 07:00:05;;;;;;;4.70;2.25;;;;;;;22.68;34.85;100246.34;4331852;33;33335;-60
2023/04/28 07:02:33;;;;;;;4.25;2.00;;;;;;;22.67;34.88;100250.94;4331864;33;34040;-63
2023/04/28 07:05:02;;;;;;;5.37;2.30;;;;;;;22.65;34.90;100244.84;4331792;33;34529;-60
2023/04/28 07:07:30;;;;;;;4.57;2.17;;;;;;;22.65;34.93;100241.31;4331841;33;34907;-62
2023/04/28 07:09:59;;;;;;;4.45;2.20;;;;;;;22.63;34.95;100243.41;4331838;33;33487;-60
2023/04/28 07:12:26;;;;;;;4.75;2.15;;;;;;;22.62;34.97;100241.75;4332612;33;33682;-61
2023/04/28 07:14:54;;;;;;;5.97;2.10;;;;;;;22.61;35.00;100238.16;4336636;33;34714;-62
2023/04/28 07:17:22;;;;;;;4.65;2.00;;;;;;;22.61;35.03;100245.50;4346336;33;34397;-58
2023/04/28 07:19:50;;;;;;;3.70;2.17;;;;;;;22.60;35.04;100244.66;4334754;33;33668;-61
2023/04/28 07:22:17;;;;;;;3.65;2.00;;;;;;;22.59;35.07;100240.28;4331692;33;33899;-63
2023/04/28 07:24:45;;;;;;;4.43;1.95;;;;;;;22.58;35.08;100240.50;4331694;33;33817;-64
2023/04/28 07:27:13;;;;;;;5.55;2.10;;;;;;;22.58;35.09;100240.50;4331782;33;34956;-61
2023/04/28 07:29:41;;;;;;;5.00;2.30;;;;;;;22.58;35.10;100241.31;4331574;33;33407;-64
2023/04/28 07:32:09;;;;;;;4.95;2.53;;;;;;;22.58;35.10;100240.50;4342824;32;34891;-64
2023/04/28 07:34:37;;;;;;;4.43;2.28;;;;;;;22.57;35.11;100238.78;4344770;33;34045;-60
2023/04/28 07:37:05;;;;;;;4.60;2.30;;;;;;;22.56;35.12;100237.97;4330466;33;34306;-64
2023/04/28 07:39:33;;;;;;;5.10;2.47;;;;;;;22.56;35.12;100237.13;4331393;33;33876;-64
2023/04/28 07:42:01;;;;;;;5.50;2.12;;;;;;;22.56;35.14;100237.13;4331391;33;34622;-61
2023/04/28 07:44:30;;;;;;;3.92;2.12;;;;;;;22.56;35.15;100234.41;4331405;33;34914;-63
2023/04/28 07:46:58;;;;;;;4.62;2.10;;;;;;;22.56;35.17;100228.97;4331121;33;34058;-63
2023/04/28 07:49:27;;;;;;;4.55;2.00;;;;;;;22.54;35.20;100229.19;4330364;33;33706;-58
2023/04/28 07:51:55;;;;;;;4.47;1.90;;;;;;;22.54;35.22;100231.91;4326668;33;33820;-63
2023/04/28 07:54:23;;;;;;;4.68;2.15;;;;;;;22.54;35.22;100222.91;4325710;33;33857;-61
2023/04/28 07:56:51;;;;;;;5.57;2.10;;;;;;;22.54;35.24;100217.47;4326859;33;34210;-63
2023/04/28 07:59:18;;;;;;;5.10;2.22;;;;;;;22.52;35.26;100212.25;4326544;33;33552;-66
2023/04/28 08:01:46;;;;;;;3.97;1.90;;;;;;;22.52;35.25;100212.25;4316409;33;33697;-64
2023/04/28 08:04:14;;;;;;;5.18;2.53;;;;;;;22.52;35.28;100205.97;4316311;33;34057;-66
2023/04/28 08:06:42;;;;;;;3.90;1.95;;;;;;;22.52;35.28;100200.50;4316621;33;34878;-65
2023/04/28 08:09:09;;;;;;;4.85;2.40;;;;;;;22.51;35.30;100204.28;4317376;33;33876;-66
2023/04/28 08:11:37;;;;;;;3.72;2.17;;;;;;;22.50;35.31;100202.63;4331059;33;34053;-64
2023/04/28 08:14:04;;;;;;;4.97;2.12;;;;;;;22.51;35.31;100201.56;4331048;33;34837;-66
2023/04/28 08:16:35;;;;;;;4.70;2.25;;;;;;;22.50;35.33;100198.03;4330738;33;34174;-62
2023/04/28 08:19:03;;;;;;;3.75;1.87;;;;;;;22.50;35.33;100183.59;4345906;33;33215;-62
2023/04/28 08:21:31;;;;;;;4.10;2.22;;;;;;;22.51;35.35;100185.25;4345936;33;34067;-65
2023/04/28 08:23:59;;;;;;;4.32;2.28;;;;;;;22.49;35.37;100188.19;4345575;33;34901;-61
2023/04/28 08:26:26;;;;;;;3.95;2.12;;;;;;;22.49;35.38;100182.75;4345579;33;34311;-62
2023/04/28 08:28:54;;;;;;;5.07;2.55;;;;;;;22.48;35.40;100181.09;4317179;33;33551;-64
2023/04/28 08:31:22;;;;;;;3.08;1.87;;;;;;;22.48;35.40;100178.38;4330564;33;33904;-64
2023/04/28 08:33:50;;;;;;;6.45;2.25;;;;;;;22.48;35.42;100181.09;4330734;33;34024;-65
2023/04/28 08:36:17;;;;;;;3.65;2.03;;;;;;;22.48;35.44;100174.81;4330720;33;34369;-66
2023/04/28 08:38:45;;;;;;;4.12;2.00;;;;;;;22.47;35.45;100182.13;4304346;33;33928;-61
2023/04/28 08:41:16;;;;;;;3.12;1.67;;;;;;;22.47;35.45;100184.84;4315984;33;34058;-65
2023/04/28 08:43:44;;;;;;;4.05;2.00;;;;;;;22.46;35.49;100180.44;4315995;33;33849;-65
2023/04/28 08:46:13;;;;;;;4.57;2.10;;;;;;;22.46;35.48;100177.72;4316282;33;34325;-63
2023/04/28 08:48:43;;;;;;;4.20;2.20;;;;;;;22.44;35.50;100168.97;4329954;33;33377;-62
2023/04/28 08:51:15;;;;;;;3.95;2.08;;;;;;;22.46;35.50;100172.28;4332800;33;33575;-63
2023/04/28 08:53:44;;;;;;;4.30;1.95;;;;;;;22.45;35.52;100167.06;4332711;33;34876;-62
2023/04/28 08:56:33;;;;;;;5.60;2.22;;;;;;;22.44;35.52;100162.69;4321511;33;33925;-66
2023/04/28 08:59:03;;;;;;;3.97;2.00;;;;;;;22.46;35.52;100160.59;4319497;33;33737;-65
2023/04/28 09:01:30;;;;;;;4.60;2.12;;;;;;;22.45;35.52;100172.50;4318009;33;34081;-62
2023/04/28 09:04:01;;;;;;;3.35;1.80;;;;;;;22.43;35.52;100159.13;4318011;33;33758;-65
2023/04/28 09:06:37;;;;;;;4.45;2.05;;;;;;;22.43;35.56;100167.28;4318232;33;33715;-61
2023/04/28 09:09:26;;;;;;;3.95;1.87;;;;;;;22.44;35.56;100163.53;4317584;33;33382;-65
2023/04/28 09:11:58;;;;;;;4.40;2.05;;;;;;;22.44;35.56;100162.69;4332929;33;34179;-65
2023/04/28 09:14:31;;;;;;;3.78;2.00;;;;;;;22.41;35.60;100164.78;4332656;33;34147;-63
2023/04/28 09:17:00;;;;;;;4.72;1.92;;;;;;;22.41;35.64;100164.78;4319030;33;34217;-64
2023/04/28 09:19:34;;;;;;;4.00;1.98;;;;;;;22.41;35.62;100169.37;4318045;33;33190;-66
2023/04/28 09:22:04;;;;;;;5.28;2.08;;;;;;;22.41;35.62;100172.94;4317981;33;34147;-62
2023/04/28 09:24:51;;;;;;;4.82;2.00;;;;;;;22.40;35.65;100168.53;4317703;33;34790;-65
2023/04/28 09:27:26;;;;;;;3.30;1.80;;;;;;;22.41;35.62;100167.47;4293078;33;34363;-61
2023/04/28 09:29:53;;;;;;;4.15;2.28;;;;;;;22.41;35.63;100166.66;4317680;33;34395;-63
2023/04/28 09:32:21;;;;;;;3.92;1.92;;;;;;;22.40;35.67;100171.25;4317772;33;33679;-61
2023/04/28 09:34:55;;;;;;;3.15;1.80;;;;;;;22.39;35.68;100161.44;4318028;33;34141;-66
2023/04/28 09:37:29;;;;;;;3.72;2.00;;;;;;;22.38;35.68;100167.94;4319651;33;34905;-64
2023/04/28 09:40:08;;;;;;;2.83;1.77;;;;;;;22.39;35.69;100155.16;4332421;33;33373;-63
2023/04/28 09:42:35;;;;;;;5.25;1.95;;;;;;;22.41;35.67;100155.78;4332341;33;34068;-65
2023/04/28 09:45:04;;;;;;;4.62;2.25;;;;;;;22.40;35.69;100154.12;4332388;33;33696;-65
2023/04/28 09:47:42;;;;;;;3.10;1.90;;;;;;;22.40;35.71;100159.56;4329412;33;34308;-62
2023/04/28 09:50:15;;;;;;;3.80;1.73;;;;;;;22.38;35.71;100151.63;4317410;33;33439;-64
2023/04/28 09:52:47;;;;;;;2.97;1.65;;;;;;;22.38;35.73;100159.78;4317851;33;34148;-62
2023/04/28 09:55:16;;;;;;;3.20;1.80;;;;;;;22.39;35.73;100147.84;4317529;33;33906;-66
2023/04/28 09:57:44;;;;;;;3.92;2.00;;;;;;;22.40;35.73;100151.41;4306702;33;34724;-64
2023/04/28 10:00:13;;;;;;;4.32;2.00;;;;;;;22.38;35.73;100135.31;4321192;33;34503;-61
2023/04/28 10:02:41;;;;;;;2.90;1.92;;;;;;;22.38;35.73;100119.00;4346761;33;33724;-63
2023/04/28 10:05:10;;;;;;;4.72;1.92;;;;;;;22.39;35.73;100111.66;4321750;33;34441;-65
2023/04/28 10:07:38;;;;;;;3.85;1.65;;;;;;;22.39;35.73;100111.66;4330373;33;34325;-63
2023/04/28 10:10:07;;;;;;;3.65;1.85;;;;;;;22.38;35.74;100107.25;4307180;33;34160;-66
2023/04/28 10:12:37;;;;;;;2.97;1.73;;;;;;;22.38;35.75;100104.53;4332339;33;33775;-61
2023/04/28 10:15:06;;;;;;;4.15;2.10;;;;;;;22.37;35.76;100097.44;4332066;33;34403;-65
2023/04/28 10:17:34;;;;;;;3.92;2.20;;;;;;;22.37;35.78;100102.88;4317329;33;34161;-61
2023/04/28 10:20:02;;;;;;;3.47;1.98;;;;;;;22.36;35.77;100102.03;4292368;33;34628;-61
2023/04/28 10:22:32;;;;;;;4.25;2.20;;;;;;;22.37;35.78;100113.75;4317591;33;33954;-62
2023/04/28 10:25:35;;;;;;;3.67;1.92;;;;;;;22.36;35.79;100087.63;4317244;33;34092;-64
2023/04/28 10:28:06;;;;;;;3.90;2.10;;;;;;;22.36;35.78;100091.16;4303841;33;33950;-62
2023/04/28 10:30:34;;;;;;;4.93;2.10;;;;;;;22.37;35.78;100070.25;4306837;33;33220;-65
2023/04/28 10:33:05;;;;;;;3.85;2.00;;;;;;;22.35;35.81;100073.19;4318801;33;33942;-61
2023/04/28 10:35:35;;;;;;;3.03;1.65;;;;;;;22.35;35.83;100078.63;4331936;33;34922;-66
2023/04/28 10:38:09;;;;;;;4.47;2.10;;;;;;;22.35;35.83;100081.34;4328043;33;34925;-66
2023/04/28 10:40:44;;;;;;;3.22;1.70;;;;;;;22.35;35.83;100066.91;4317584;33;33713;-64
2023/04/28 10:43:13;;;;;;;4.07;1.75;;;;;;;22.34;35.85;100059.81;4317991;33;35416;-64
2023/04/28 10:46:00;;;;;;;3.28;2.00;;;;;;;22.34;35.86;100067.97;4330003;33;34670;-66
2023/04/28 10:48:28;;;;;;;3.85;2.30;;;;;;;22.35;35.85;100056.03;4327243;33;34323;-63
2023/04/28 10:51:05;;;;;;;3.05;1.83;;;;;;;22.34;35.85;100054.37;4331501;33;33748;-63
2023/04/28 10:53:47;;;;;;;4.45;2.10;;;;;;;22.33;35.86;100058.94;4330747;33;34680;-64
2023/04/28 10:56:20;;;;;;;3.75;1.83;;;;;;;22.33;35.88;100048.06;4318551;33;33182;-64
2023/04/28 10:58:49;;;;;;;3.60;1.98;;;;;;;22.32;35.89;100048.31;4331989;33;34195;-65
2023/04/28 11:01:20;;;;;;;3.42;1.90;;;;;;;22.33;35.89;100039.09;4331953;33;33286;-65
2023/04/28 11:04:02;;;;;;;3.95;1.70;;;;;;;22.31;35.91;100052.06;4317421;33;33573;-62
2023/04/28 11:06:35;;;;;;;4.07;2.08;;;;;;;22.32;35.92;100057.28;4311595;33;33786;-60
2023/04/28 11:09:31;;;;;;;3.72;1.55;;;;;;;22.31;35.92;100046.63;4331537;33;34202;-65
2023/04/28 11:11:59;;;;;;;3.17;1.85;;;;;;;22.33;35.88;100044.53;4331109;33;34120;-65
2023/04/28 11:14:33;;;;;;;3.60;1.83;;;;;;;22.31;35.91;100044.75;4331633;33;34009;-64
2023/04/28 11:17:02;;;;;;;2.87;1.55;;;;;;;22.32;35.93;100040.97;4331824;33;33887;-63
2023/04/28 11:19:30;;;;;;;3.22;1.55;;;;;;;22.30;35.92;100043.09;4318049;33;32544;-65
2023/04/28 11:22:01;;;;;;;3.62;1.95;;;;;;;22.31;35.92;100033.87;4329615;33;34231;-63
2023/04/28 11:24:29;;;;;;;3.45;1.60;;;;;;;22.31;35.94;100033.03;4303866;33;33443;-65
2023/04/28 11:26:57;;;;;;;4.55;1.95;;;;;;;22.31;35.92;100033.03;4316794;33;34611;-65
2023/04/28 11:29:38;;;;;;;4.00;1.80;;;;;;;22.30;35.93;100037.66;4316977;33;35032;-63
2023/04/28 11:32:08;;;;;;;2.92;1.70;;;;;;;22.31;35.93;100033.03;4319157;33;34164;-66